Saint Louis, MO (63114)

11:52 PM CST on February 10, 2016 (GMT -0600)
1 Mile South of St. Louis Lambert Airport | | Change Station
CLOSE
Current Station
Personal Weather Station
Location: Woodson Terrace, MO
Elevation: 591 ft
Nearby Weather Stations

Elev 591 ft 38.72 °N, 90.36 °W | Updated 12 seconds ago

Overcast
Overcast
22.3 °F
Feels Like 22 °F
N
1.0
Wind Variable Wind from East
Gusts 3.0 mph

Today
High -- | Low -- °F
--% Chance of Precip.
Yesterday
High -- | Low -- °F
Precip. -- in
Pressure 30.21 in
Visibility 10.0 miles
Clouds Overcast 6000 ft
Windchill 22 °F
Dew Point 19 °F
Humidity 87%
Rainfall 0.00 in
Snow Depth Not available.
6:58 AM 5:33 PM
Waxing Crescent, 9% visible
METAR KSTL 110451Z 07005KT 10SM OVC060 M04/M07 A3016 RMK AO2 SLP229 T10441072
Pressure 30.21 in
Visibility 10.0 miles
Clouds Overcast 6000 ft
Windchill 22 °F
Dew Point 19 °F
Humidity 87%
Rainfall 0.00 in
Snow Depth Not available.
6:58 AM 5:33 PM
Waxing Crescent, 9% visible
METAR KSTL 110451Z 07005KT 10SM OVC060 M04/M07 A3016 RMK AO2 SLP229 T10441072

10-Day Weather Forecast

Almanac

Astronomy

Feb. 10, 2016 Rise Set
Actual Time
Civil Twilight
Nautical Twilight
Astronomical Twilight
Moon
Length of Visible Light
Length of Day
Tomorrow will be .
, % of the Moon is Illuminated

Today's Extremes

State Highs State Lows

Community

WunderPhotos

Upload Photos

1,892,023 photos uploaded!

WunderBlog® & News

Nearby

Air Quality

  Air Quality AQ Index Pollutant
Not available.

Snow Depth

Station Depth Elevation

Earthquake Activity

City Distance Mag. Time & Date
Minimum magnitude displayed is 2.5.

Coastal Water Temperatures

Place Temperature

Stations

Nearby Weather Stations

Station Location Temp. Windchill Dew Point Humidity Wind Precip. Elev Updated Type
                   

Watches & Warnings

There are currently no watches in effect.